Time;durP1;ratioP1;P1;durP2;ratioP2;P2;SDS_P1;SDS_P2;PMS_P1;PMS_P2;Temp;Humidity;BMP_temperature;BMP_pressure;BME280_temperature;BME280_humidity;BME280_pressure;Samples;Min_cycle;Max_cycle;Signal;HPM_P1;HPM_P2
2021/03/22 00:01:44;;;;;;;19.30;10.02;;;;;;;1.51;75.09;96325.78;5052867;28;20056;-69
2021/03/22 00:04:10;;;;;;;17.13;10.32;;;;;;;1.51;75.70;96323.09;5052410;28;20056;-69
2021/03/22 00:06:36;;;;;;;15.88;9.45;;;;;;;1.61;75.29;96330.38;5052514;28;20045;-68
2021/03/22 00:09:03;;;;;;;17.67;9.90;;;;;;;1.61;75.25;96328.50;5052462;28;20045;-69
2021/03/22 00:11:29;;;;;;;19.77;9.63;;;;;;;1.61;75.36;96333.06;5051982;28;20048;-69
2021/03/22 00:13:55;;;;;;;20.70;10.25;;;;;;;1.67;75.20;96332.84;5053140;28;20126;-68
2021/03/22 00:16:22;;;;;;;18.08;9.68;;;;;;;1.63;75.20;96331.75;5051304;28;20084;-69
2021/03/22 00:18:49;;;;;;;17.77;9.95;;;;;;;1.71;75.19;96331.25;5053106;28;20043;-69
2021/03/22 00:21:15;;;;;;;17.98;10.68;;;;;;;1.73;75.50;96331.81;5051503;28;20095;-69
2021/03/22 00:23:41;;;;;;;17.77;9.85;;;;;;;1.75;75.22;96323.47;5052102;28;20045;-69
2021/03/22 00:26:08;;;;;;;18.00;9.43;;;;;;;1.81;75.20;96319.75;5051514;28;20045;-69
2021/03/22 00:28:38;;;;;;;17.10;9.65;;;;;;;1.68;75.24;96323.72;5051909;28;20125;-69
2021/03/22 00:31:06;;;;;;;19.55;10.60;;;;;;;1.73;75.41;96325.63;5052166;28;20049;-69
2021/03/22 00:33:32;;;;;;;18.77;10.63;;;;;;;1.72;75.33;96319.44;5051711;28;20454;-69
2021/03/22 00:35:59;;;;;;;20.48;10.07;;;;;;;1.71;75.35;96317.81;5052608;28;20053;-69
2021/03/22 00:38:25;;;;;;;18.73;9.88;;;;;;;1.64;75.50;96311.88;5051098;28;20048;-69
2021/03/22 00:40:51;;;;;;;18.95;10.57;;;;;;;1.67;75.55;96311.38;5052201;28;20052;-69
2021/03/22 00:43:17;;;;;;;21.05;10.27;;;;;;;1.71;75.34;96311.66;5050959;28;20044;-69
2021/03/22 00:45:43;;;;;;;20.80;10.85;;;;;;;1.54;75.94;96301.09;5052515;28;20071;-69
2021/03/22 00:48:10;;;;;;;19.70;10.70;;;;;;;1.54;76.26;96301.09;5051000;28;20045;-67
2021/03/22 00:50:38;;;;;;;18.80;10.73;;;;;;;1.49;76.42;96303.78;5052160;28;20675;-68
2021/03/22 00:53:06;;;;;;;21.67;10.50;;;;;;;1.52;76.55;96295.22;5051015;28;20045;-69
2021/03/22 00:55:32;;;;;;;18.70;10.00;;;;;;;1.56;76.42;96298.97;5051737;28;20420;-69
2021/03/22 00:57:58;;;;;;;20.35;10.75;;;;;;;1.54;76.41;96301.91;5051840;28;20052;-69
2021/03/22 01:00:28;;;;;;;20.33;10.82;;;;;;;1.53;76.51;96307.56;5050868;28;20396;-69
2021/03/22 01:02:55;;;;;;;20.85;10.88;;;;;;;1.48;76.87;96299.47;5052389;28;20051;-69
2021/03/22 01:05:22;;;;;;;21.98;11.43;;;;;;;1.53;76.62;96305.66;5051778;28;20072;-69
2021/03/22 01:07:48;;;;;;;20.40;10.57;;;;;;;1.61;76.55;96301.66;5052034;28;20499;-69
2021/03/22 01:10:30;;;;;;;25.20;11.55;;;;;;;1.65;76.37;96302.75;5051815;28;20049;-69
2021/03/22 01:12:56;;;;;;;19.65;10.00;;;;;;;1.62;76.25;96292.56;5051579;28;20049;-68
2021/03/22 01:15:22;;;;;;;23.02;10.73;;;;;;;1.56;76.51;96296.28;5050682;28;20051;-68
2021/03/22 01:17:48;;;;;;;19.75;10.95;;;;;;;1.49;76.50;96293.03;5050756;28;20844;-68
2021/03/22 01:20:18;;;;;;;22.10;10.40;;;;;;;1.49;76.85;96298.41;5051021;28;20408;-69
2021/03/22 01:22:44;;;;;;;22.40;11.68;;;;;;;1.47;77.09;96290.63;5050156;28;20489;-68
2021/03/22 01:25:12;;;;;;;18.65;10.57;;;;;;;1.49;76.94;96287.66;5051306;28;20045;-69
2021/03/22 01:27:39;;;;;;;18.80;11.50;;;;;;;1.50;76.93;96278.53;5050264;28;20063;-68
2021/03/22 01:30:18;;;;;;;21.25;11.35;;;;;;;1.46;77.04;96283.66;5051432;28;20045;-69
2021/03/22 01:32:45;;;;;;;21.42;11.02;;;;;;;1.41;77.47;96277.41;5050742;28;20055;-68
2021/03/22 01:35:11;;;;;;;28.58;11.25;;;;;;;1.41;77.32;96272.06;5050640;28;20618;-68
2021/03/22 01:37:37;;;;;;;20.48;10.82;;;;;;;1.40;77.59;96267.75;5050841;28;20045;-68
2021/03/22 01:40:15;;;;;;;19.30;11.00;;;;;;;1.39;77.61;96268.84;5050224;28;20053;-69
2021/03/22 01:42:59;;;;;;;24.42;10.98;;;;;;;1.40;77.64;96270.44;5051281;28;20109;-69
2021/03/22 01:45:25;;;;;;;22.42;10.82;;;;;;;1.37;77.79;96268.31;5049688;28;20534;-68
2021/03/22 01:47:51;;;;;;;20.92;12.13;;;;;;;1.33;78.00;96261.84;5051332;28;20041;-68
2021/03/22 01:50:23;;;;;;;21.17;11.38;;;;;;;1.37;78.11;96257.56;5049686;28;20037;-69
2021/03/22 01:52:51;;;;;;;21.45;10.10;;;;;;;1.39;77.67;96255.41;5061024;28;20048;-69
2021/03/22 01:55:18;;;;;;;23.40;11.45;;;;;;;1.32;78.09;96260.22;5070080;28;20045;-69
2021/03/22 01:57:46;;;;;;;21.02;11.27;;;;;;;1.31;78.02;96251.38;5061559;28;20041;-66
2021/03/22 02:00:21;;;;;;;22.48;11.20;;;;;;;1.34;78.26;96263.44;5050495;28;20056;-69
2021/03/22 02:02:50;;;;;;;23.23;11.18;;;;;;;1.39;78.04;96260.78;5049980;28;20041;-68
2021/03/22 02:05:20;;;;;;;23.52;11.57;;;;;;;1.36;78.12;96261.31;5050873;28;20049;-69
2021/03/22 02:07:49;;;;;;;24.15;11.85;;;;;;;1.41;77.98;96267.53;5049920;28;20403;-69
2021/03/22 02:10:15;;;;;;;20.20;10.77;;;;;;;1.37;78.24;96268.31;5050304;28;20089;-68
2021/03/22 02:12:41;;;;;;;23.20;11.68;;;;;;;1.34;78.43;96268.81;5049869;28;20395;-68
2021/03/22 02:15:10;;;;;;;24.17;10.23;;;;;;;1.38;78.31;96270.72;5050069;28;20412;-69
2021/03/22 02:17:45;;;;;;;24.05;11.23;;;;;;;1.43;78.20;96276.09;5050545;28;20052;-68
2021/03/22 02:20:42;;;;;;;22.63;11.43;;;;;;;1.43;78.11;96283.34;5049551;28;20512;-68
2021/03/22 02:23:52;;;;;;;22.63;11.00;;;;;;;1.44;78.18;96287.63;5064011;28;20550;-69
2021/03/22 02:26:46;;;;;;;21.50;10.80;;;;;;;1.47;78.04;96290.63;5069577;28;20101;-69
2021/03/22 02:29:37;;;;;;;21.73;11.10;;;;;;;1.52;77.94;96292.53;5024369;28;20060;-69
2021/03/22 02:32:15;;;;;;;24.88;10.48;;;;;;;1.53;77.84;96289.56;5030746;28;20045;-69
2021/03/22 02:34:48;;;;;;;22.27;10.52;;;;;;;1.56;77.85;96288.22;5030015;28;20080;-69
2021/03/22 02:37:28;;;;;;;19.02;8.82;;;;;;;1.63;77.57;96294.19;5029881;28;20491;-67
2021/03/22 02:40:05;;;;;;;28.02;11.00;;;;;;;1.63;77.33;96306.78;5030238;28;20053;-66
2021/03/22 02:42:32;;;;;;;22.17;10.35;;;;;;;1.68;77.33;96307.63;5029365;28;20044;-66
2021/03/22 02:44:58;;;;;;;20.45;9.90;;;;;;;1.69;77.35;96308.44;5030552;28;20053;-67
2021/03/22 02:47:29;;;;;;;21.60;9.90;;;;;;;1.73;77.02;96313.00;5028880;28;20500;-66
2021/03/22 02:49:59;;;;;;;25.08;11.63;;;;;;;1.71;76.62;96307.06;5030606;28;20458;-69
2021/03/22 02:52:49;;;;;;;20.77;10.45;;;;;;;1.63;77.22;96307.59;5047489;28;20036;-67
2021/03/22 02:55:27;;;;;;;19.88;10.10;;;;;;;1.67;77.11;96316.75;5069391;28;20040;-67
2021/03/22 02:57:56;;;;;;;22.30;10.23;;;;;;;1.69;77.14;96321.84;5060192;28;20037;-66
2021/03/22 03:00:25;;;;;;;21.23;9.23;;;;;;;1.74;77.15;96320.00;5048784;28;20049;-67
2021/03/22 03:02:56;;;;;;;23.02;9.38;;;;;;;1.71;77.00;96320.50;5050777;28;20041;-67
2021/03/22 03:05:27;;;;;;;20.02;9.38;;;;;;;1.77;77.00;96322.13;5052818;28;20053;-67
2021/03/22 03:07:55;;;;;;;20.00;9.50;;;;;;;1.76;76.56;96325.88;5054322;28;20086;-67
2021/03/22 03:10:21;;;;;;;22.23;9.65;;;;;;;1.71;76.77;96333.91;5052911;28;20051;-67
2021/03/22 03:12:47;;;;;;;25.08;10.45;;;;;;;1.72;76.87;96332.88;5053885;28;20499;-67
2021/03/22 03:15:15;;;;;;;21.13;9.73;;;;;;;1.72;76.62;96327.50;5053160;28;20136;-67
2021/03/22 03:17:41;;;;;;;19.05;8.45;;;;;;;1.78;76.55;96331.03;5053654;28;20049;-67
2021/03/22 03:20:11;;;;;;;21.92;9.52;;;;;;;1.77;76.35;96330.19;5053558;28;20045;-67
2021/03/22 03:22:39;;;;;;;18.42;9.23;;;;;;;1.81;76.33;96333.97;5052704;28;20040;-67
2021/03/22 03:25:08;;;;;;;25.25;9.75;;;;;;;1.78;76.39;96331.81;5053814;28;20044;-67
2021/03/22 03:27:34;;;;;;;26.20;9.98;;;;;;;1.78;76.49;96329.13;5052675;28;20041;-67
2021/03/22 03:30:00;;;;;;;19.00;9.13;;;;;;;1.84;76.31;96327.28;5054150;28;20099;-67
2021/03/22 03:32:26;;;;;;;21.70;8.88;;;;;;;1.80;76.21;96331.56;5052472;28;20041;-67
2021/03/22 03:34:52;;;;;;;22.00;9.32;;;;;;;1.81;76.27;96325.09;5053647;28;20056;-68
2021/03/22 03:37:18;;;;;;;21.15;9.38;;;;;;;1.78;76.13;96333.69;5052483;28;20059;-67
2021/03/22 03:39:45;;;;;;;23.55;9.73;;;;;;;1.64;76.43;96336.03;5053255;28;20036;-67
2021/03/22 03:42:12;;;;;;;24.85;8.77;;;;;;;1.65;76.63;96334.97;5053100;28;20049;-67
2021/03/22 03:44:39;;;;;;;22.95;9.02;;;;;;;1.64;76.98;96333.38;5052751;28;20119;-67
2021/03/22 03:47:06;;;;;;;26.65;8.77;;;;;;;1.59;77.02;96330.66;5053161;28;20075;-67
2021/03/22 03:49:33;;;;;;;22.70;8.75;;;;;;;1.52;77.26;96335.47;5050322;28;20044;-67
2021/03/22 03:51:59;;;;;;;28.80;9.45;;;;;;;1.48;77.51;96337.03;5052782;28;20052;-67
2021/03/22 03:54:25;;;;;;;21.98;9.20;;;;;;;1.55;77.36;96332.25;5052224;28;20091;-67
2021/03/22 03:56:52;;;;;;;20.63;8.98;;;;;;;1.58;77.28;96334.41;5053445;28;20037;-67
2021/03/22 03:59:18;;;;;;;25.90;8.80;;;;;;;1.46;77.38;96333.78;5052106;28;20037;-67
2021/03/22 04:01:44;;;;;;;21.02;8.70;;;;;;;1.49;77.64;96330.59;5052896;28;20044;-67
2021/03/22 04:04:09;;;;;;;28.70;9.10;;;;;;;1.50;77.46;96326.84;5052358;28;20476;-67
2021/03/22 04:06:36;;;;;;;22.05;9.10;;;;;;;1.36;77.84;96331.88;5052546;28;20072;-67
2021/03/22 04:09:05;;;;;;;25.60;8.73;;;;;;;1.36;78.13;96326.53;5052633;28;20474;-67
2021/03/22 04:11:34;;;;;;;20.90;9.10;;;;;;;1.34;78.10;96327.84;5052306;28;20156;-67
2021/03/22 04:14:02;;;;;;;22.63;8.80;;;;;;;1.30;78.36;96328.38;5053162;28;20045;-67
2021/03/22 04:16:30;;;;;;;24.52;8.98;;;;;;;1.35;78.15;96334.81;5051052;28;20072;-67
2021/03/22 04:18:56;;;;;;;25.45;9.15;;;;;;;1.35;78.00;96334.81;5053248;28;20485;-66
2021/03/22 04:21:24;;;;;;;21.88;8.77;;;;;;;1.32;78.09;96335.34;5051368;28;20059;-69
2021/03/22 04:23:53;;;;;;;20.90;8.57;;;;;;;1.41;78.13;96334.59;5052356;28;20110;-69
2021/03/22 04:26:19;;;;;;;19.65;7.55;;;;;;;1.48;77.81;96329.00;5051739;28;20578;-67
2021/03/22 04:28:46;;;;;;;20.05;7.47;;;;;;;1.52;77.51;96338.94;5052082;28;20041;-67
2021/03/22 04:31:14;;;;;;;23.85;8.60;;;;;;;1.62;77.02;96324.78;5052115;28;20082;-67
2021/03/22 04:33:40;;;;;;;23.88;7.55;;;;;;;1.63;76.95;96331.75;5051622;28;20504;-67
2021/03/22 04:36:07;;;;;;;24.77;8.15;;;;;;;1.71;76.45;96331.25;5052118;28;20531;-67
2021/03/22 04:38:33;;;;;;;20.48;7.40;;;;;;;1.81;75.99;96339.34;5051705;28;20075;-67
2021/03/22 04:41:00;;;;;;;21.15;7.13;;;;;;;1.76;76.02;96333.94;5052769;28;20045;-67
2021/03/22 04:43:26;;;;;;;23.23;7.88;;;;;;;1.81;75.86;96338.53;5050966;28;20053;-67
2021/03/22 04:45:52;;;;;;;23.33;7.00;;;;;;;1.86;75.77;96343.91;5052543;28;20061;-67
2021/03/22 04:48:19;;;;;;;20.42;7.20;;;;;;;1.81;75.64;96339.34;5051118;28;20049;-67
2021/03/22 04:50:45;;;;;;;28.90;6.82;;;;;;;1.81;75.53;96347.38;5051829;28;20048;-67
2021/03/22 04:53:12;;;;;;;23.17;7.93;;;;;;;1.82;75.47;96350.88;5051326;28;20049;-67
2021/03/22 04:55:38;;;;;;;27.75;6.88;;;;;;;1.82;75.32;96351.69;5051616;28;20041;-67
2021/03/22 04:58:04;;;;;;;32.75;8.07;;;;;;;1.81;75.24;96349.28;5051764;28;20385;-67
2021/03/22 05:00:32;;;;;;;25.70;6.53;;;;;;;1.74;75.44;96354.88;5050864;28;20053;-67
2021/03/22 05:02:58;;;;;;;23.75;6.72;;;;;;;1.79;75.68;96351.41;5052452;28;20044;-67
2021/03/22 05:05:26;;;;;;;24.45;6.47;;;;;;;1.83;75.50;96342.59;5050651;28;20041;-67
2021/03/22 05:07:53;;;;;;;20.50;5.90;;;;;;;1.87;75.53;96352.78;5052024;28;20048;-67
2021/03/22 05:10:22;;;;;;;19.63;6.43;;;;;;;1.87;75.47;96353.59;5050731;28;20041;-67
2021/03/22 05:12:48;;;;;;;21.10;6.70;;;;;;;1.89;75.49;96354.16;5051691;28;20106;-67
2021/03/22 05:15:16;;;;;;;21.63;7.28;;;;;;;1.89;75.45;96356.03;5051135;28;20040;-67
2021/03/22 05:17:42;;;;;;;28.38;7.47;;;;;;;1.92;75.40;96350.13;5051299;28;20049;-67
2021/03/22 05:20:11;;;;;;;32.60;6.85;;;;;;;1.92;75.23;96360.84;5050891;28;20107;-67
2021/03/22 05:22:38;;;;;;;29.30;6.65;;;;;;;1.92;75.36;96356.28;5050563;28;20041;-67
2021/03/22 05:25:05;;;;;;;26.00;6.22;;;;;;;1.91;75.12;96370.00;5051418;28;20049;-67
2021/03/22 05:27:31;;;;;;;17.40;5.70;;;;;;;1.93;74.88;96351.72;5050189;28;20098;-67
2021/03/22 05:29:57;;;;;;;20.42;5.90;;;;;;;1.90;75.12;96357.63;5051895;28;20064;-67
2021/03/22 05:32:29;;;;;;;25.60;5.50;;;;;;;1.90;74.85;96368.38;5050317;28;20064;-67
2021/03/22 05:34:55;;;;;;;25.80;5.05;;;;;;;1.88;74.68;96367.81;5051259;28;20045;-67
2021/03/22 05:37:21;;;;;;;13.27;4.45;;;;;;;1.93;74.96;96373.22;5050356;28;20049;-67
2021/03/22 05:39:49;;;;;;;23.65;5.40;;;;;;;1.97;74.88;96372.44;5050991;28;20049;-67
2021/03/22 05:42:26;;;;;;;18.58;5.00;;;;;;;2.00;74.85;96373.78;5050520;28;20049;-68
2021/03/22 05:44:57;;;;;;;23.67;4.97;;;;;;;1.96;75.04;96375.38;5050572;28;20377;-67
2021/03/22 05:47:31;;;;;;;19.15;4.80;;;;;;;1.96;75.04;96373.50;5050975;28;20037;-67
2021/03/22 05:50:09;;;;;;;22.75;5.68;;;;;;;1.92;74.85;96383.16;5051264;28;20049;-68
2021/03/22 05:52:56;;;;;;;28.80;5.40;;;;;;;1.94;75.19;96385.59;5049649;28;20049;-67
2021/03/22 05:55:39;;;;;;;20.30;4.90;;;;;;;1.96;74.89;96391.50;5050182;28;20059;-68
2021/03/22 05:58:30;;;;;;;17.15;5.25;;;;;;;2.07;75.01;96385.09;5049963;28;20214;-68
2021/03/22 06:01:04;;;;;;;19.90;5.43;;;;;;;2.16;74.70;96391.56;5051084;28;20092;-67
2021/03/22 06:03:37;;;;;;;21.67;5.20;;;;;;;2.17;74.83;96398.56;5049662;28;20041;-67
2021/03/22 06:06:12;;;;;;;24.65;5.75;;;;;;;2.24;74.40;96396.44;5050401;28;20044;-67
2021/03/22 06:08:44;;;;;;;15.63;5.05;;;;;;;2.27;74.56;96401.28;5050502;28;20052;-67
2021/03/22 06:11:26;;;;;;;27.52;7.40;;;;;;;2.22;75.02;96398.59;5050439;28;20052;-67
2021/03/22 06:13:57;;;;;;;30.27;5.93;;;;;;;2.21;74.77;96407.72;5051085;28;20041;-67
2021/03/22 06:16:27;;;;;;;26.42;6.25;;;;;;;2.21;74.80;96402.34;5049417;28;20041;-67
2021/03/22 06:18:57;;;;;;;25.67;5.50;;;;;;;2.16;74.80;96394.28;5050987;28;20048;-67
2021/03/22 06:21:26;;;;;;;30.33;7.20;;;;;;;2.15;74.85;96398.03;5049246;28;20048;-67
2021/03/22 06:23:52;;;;;;;22.30;6.60;;;;;;;2.18;75.06;96397.47;5050087;28;20052;-67
2021/03/22 06:26:32;;;;;;;33.65;7.38;;;;;;;2.16;75.12;96405.00;5049803;28;20082;-68
2021/03/22 06:29:02;;;;;;;25.58;5.82;;;;;;;2.24;74.78;96409.06;5049735;28;20056;-67
2021/03/22 06:31:28;;;;;;;25.13;5.55;;;;;;;2.21;74.56;96413.09;5050367;28;20040;-67
2021/03/22 06:34:01;;;;;;;23.83;5.82;;;;;;;2.26;74.46;96409.63;5049661;28;20044;-67
2021/03/22 06:36:27;;;;;;;26.90;5.47;;;;;;;2.24;74.81;96428.66;5050511;28;20064;-67
2021/03/22 06:38:54;;;;;;;26.75;6.07;;;;;;;2.25;74.83;96430.31;5050184;28;20478;-67
2021/03/22 06:41:34;;;;;;;22.40;5.70;;;;;;;2.38;74.84;96436.25;5050118;28;20049;-67
2021/03/22 06:44:03;;;;;;;23.98;5.15;;;;;;;2.47;74.35;96437.38;5049809;28;20045;-67
2021/03/22 06:46:29;;;;;;;21.52;5.57;;;;;;;2.50;74.23;96442.19;5049446;28;20041;-67
2021/03/22 06:49:01;;;;;;;27.08;5.35;;;;;;;2.53;74.09;96441.69;5050570;28;20044;-67
2021/03/22 06:51:27;;;;;;;23.27;5.93;;;;;;;2.64;73.93;96431.75;5049834;28;20045;-67
2021/03/22 06:53:55;;;;;;;24.13;5.72;;;;;;;2.61;73.68;96438.50;5050527;28;20093;-67
2021/03/22 06:56:26;;;;;;;18.38;5.57;;;;;;;2.72;73.61;96447.38;5048830;28;20485;-67
2021/03/22 06:59:10;;;;;;;19.83;4.43;;;;;;;2.78;73.44;96440.94;5050488;28;20519;-67
2021/03/22 07:01:38;;;;;;;17.95;4.95;;;;;;;2.80;73.58;96446.84;5049445;28;20041;-67
2021/03/22 07:04:26;;;;;;;32.28;6.45;;;;;;;2.95;73.61;96448.78;5049426;28;20044;-67
2021/03/22 07:07:14;;;;;;;15.85;4.50;;;;;;;2.93;72.35;96451.72;5050191;28;20041;-67
2021/03/22 07:09:43;;;;;;;26.73;6.03;;;;;;;2.94;71.99;96457.91;5049288;28;20045;-69
2021/03/22 07:12:30;;;;;;;26.63;5.60;;;;;;;3.00;72.41;96459.53;5049878;28;20053;-68
2021/03/22 07:15:15;;;;;;;26.52;5.68;;;;;;;3.06;72.57;96470.03;5049550;28;20037;-67
2021/03/22 07:17:41;;;;;;;24.42;5.30;;;;;;;3.17;72.11;96473.53;5049671;28;20048;-67
2021/03/22 07:20:11;;;;;;;25.63;5.50;;;;;;;3.24;71.05;96473.28;5050049;28;20541;-67
2021/03/22 07:22:37;;;;;;;17.95;4.10;;;;;;;3.27;71.04;96468.16;5049327;28;20040;-67
2021/03/22 07:25:07;;;;;;;29.83;5.03;;;;;;;3.34;70.57;96470.59;5049821;28;20052;-67
2021/03/22 07:27:41;;;;;;;17.73;5.07;;;;;;;3.27;70.59;96467.34;5048619;28;20492;-77
2021/03/22 07:30:25;;;;;;;24.92;5.28;;;;;;;3.16;71.20;96471.94;5050066;28;20049;-72
2021/03/22 07:33:11;;;;;;;18.08;4.93;;;;;;;3.15;70.36;96478.38;5049527;28;20052;-71
2021/03/22 07:36:10;;;;;;;21.40;5.07;;;;;;;3.22;70.79;96481.63;5049369;28;20048;-71
2021/03/22 07:38:59;;;;;;;24.23;5.03;;;;;;;3.37;70.72;96478.94;5043254;28;20273;-71
2021/03/22 07:41:35;;;;;;;24.63;5.05;;;;;;;3.42;69.35;96485.41;5048913;28;20051;-70
2021/03/22 07:44:28;;;;;;;18.70;4.38;;;;;;;3.48;69.18;96478.94;5049342;28;20664;-71
2021/03/22 07:47:09;;;;;;;19.42;4.18;;;;;;;3.53;68.06;96481.63;5030073;28;20381;-71
2021/03/22 07:49:45;;;;;;;16.40;4.10;;;;;;;3.63;68.08;96487.00;5028851;28;20049;-71
2021/03/22 07:52:23;;;;;;;21.02;4.50;;;;;;;3.65;67.40;96484.84;5022500;28;20053;-71
2021/03/22 07:55:00;;;;;;;17.42;3.25;;;;;;;3.73;66.01;96497.78;5033049;28;20045;-71
2021/03/22 07:57:38;;;;;;;16.88;3.17;;;;;;;3.79;65.15;96477.84;5032782;28;20041;-71
2021/03/22 08:00:15;;;;;;;21.15;3.90;;;;;;;3.78;65.34;96484.31;5032967;28;20459;-71
2021/03/22 08:02:54;;;;;;;23.60;4.53;;;;;;;3.86;65.16;96481.09;5032417;28;20037;-71
2021/03/22 08:05:31;;;;;;;13.13;3.17;;;;;;;3.93;64.52;96492.38;5033158;28;20056;-71
2021/03/22 08:08:07;;;;;;;24.40;9.23;;;;;;;3.99;64.53;96497.75;5032538;28;20421;-71
2021/03/22 08:10:41;;;;;;;22.10;4.18;;;;;;;3.99;64.31;96498.56;5033117;28;20041;-71
2021/03/22 08:13:34;;;;;;;26.17;3.85;;;;;;;4.05;64.83;96493.97;5032742;28;20077;-70
2021/03/22 08:16:11;;;;;;;25.77;4.78;;;;;;;4.13;65.42;96496.13;5030451;28;20051;-70
2021/03/22 08:18:44;;;;;;;21.23;4.80;;;;;;;4.23;65.76;96500.66;5033430;28;20040;-71
2021/03/22 08:21:18;;;;;;;20.10;4.00;;;;;;;4.34;64.97;96503.06;5032475;28;20534;-71
2021/03/22 08:23:52;;;;;;;23.25;4.40;;;;;;;4.41;63.48;96503.56;5011699;28;20057;-70
2021/03/22 08:26:24;;;;;;;18.00;4.50;;;;;;;4.34;63.68;96497.69;5012519;28;20613;-71
2021/03/22 08:29:01;;;;;;;23.48;4.88;;;;;;;4.37;63.86;96507.88;5030286;28;20046;-71
2021/03/22 08:31:36;;;;;;;17.88;3.88;;;;;;;4.45;64.49;96507.34;5032816;28;20646;-71
2021/03/22 08:34:10;;;;;;;17.77;4.70;;;;;;;4.51;62.42;96518.09;5031667;28;20511;-71
2021/03/22 08:36:47;;;;;;;25.35;4.50;;;;;;;4.43;62.21;96522.97;5033119;28;20072;-72
2021/03/22 08:39:23;;;;;;;26.88;5.55;;;;;;;4.48;63.06;96524.03;5032295;28;20511;-71
2021/03/22 08:41:58;;;;;;;18.00;3.90;;;;;;;4.55;63.67;96524.56;5032157;28;20095;-70
2021/03/22 08:44:28;;;;;;;17.13;4.80;;;;;;;4.56;62.81;96526.19;5032020;28;20049;-70
2021/03/22 08:47:01;;;;;;;24.58;4.00;;;;;;;4.57;62.95;96523.19;5031962;28;20044;-71
2021/03/22 08:49:36;;;;;;;;;;;;;;;4.67;64.59;96533.97;5032666;28;20045;-70
2021/03/22 08:52:02;;;;;;;20.85;4.00;;;;;;;4.72;63.07;96530.44;5031989;28;19921;-70
2021/03/22 08:54:32;;;;;;;25.98;4.70;;;;;;;4.70;61.99;96536.13;5032681;28;20049;-70
2021/03/22 08:57:08;;;;;;;20.17;4.10;;;;;;;4.80;62.39;96529.84;5031709;28;20054;-70
2021/03/22 08:59:36;;;;;;;24.83;4.60;;;;;;;4.97;62.64;96535.72;5032190;28;20048;-70
2021/03/22 09:02:24;;;;;;;20.73;4.55;;;;;;;5.16;62.50;96535.06;5031372;28;20647;-71
2021/03/22 09:04:53;;;;;;;19.15;3.70;;;;;;;5.21;61.01;96543.13;5031599;28;20044;-71
2021/03/22 09:07:29;;;;;;;18.75;4.65;;;;;;;5.46;59.72;96540.28;5031958;28;20457;-70
2021/03/22 09:10:24;;;;;;;21.05;4.25;;;;;;;5.96;58.24;96549.13;5031583;28;20045;-71
2021/03/22 09:12:51;;;;;;;19.83;4.30;;;;;;;6.26;57.86;96541.81;5031767;28;20042;-70
2021/03/22 09:15:22;;;;;;;22.27;4.63;;;;;;;6.35;57.30;96550.94;5031154;28;20046;-71
2021/03/22 09:18:09;;;;;;;24.30;5.47;;;;;;;6.32;56.65;96546.09;5031545;28;20038;-71
2021/03/22 09:21:09;;;;;;;18.35;4.55;;;;;;;6.25;57.84;96554.53;5032448;28;20444;-72
2021/03/22 09:23:43;;;;;;;15.18;4.85;;;;;;;6.26;56.93;96558.03;5030787;28;20056;-70
2021/03/22 09:26:10;;;;;;;18.25;3.90;;;;;;;6.12;57.62;96557.91;5031214;28;20049;-70
2021/03/22 09:28:41;;;;;;;19.83;5.25;;;;;;;6.18;56.47;96562.19;5044551;28;20048;-70
2021/03/22 09:31:41;;;;;;;14.13;3.88;;;;;;;6.35;55.08;96550.94;5050865;28;20068;-70
2021/03/22 09:34:42;;;;;;;23.23;4.32;;;;;;;6.73;56.59;96553.75;5051518;28;20389;-71
2021/03/22 09:37:54;;;;;;;19.98;4.55;;;;;;;6.67;56.81;96549.50;4988608;28;20421;-72
2021/03/22 09:40:54;;;;;;;21.60;4.40;;;;;;;6.23;56.79;96554.03;4988546;28;20050;-69
2021/03/22 09:43:32;;;;;;;18.98;4.15;;;;;;;5.97;56.04;96550.75;5050501;28;20052;-70
2021/03/22 09:46:25;;;;;;;20.90;4.15;;;;;;;6.01;56.58;96546.38;5051021;28;20132;-70
2021/03/22 09:49:21;;;;;;;20.88;4.30;;;;;;;5.80;56.60;96555.72;5030936;28;20041;-72
2021/03/22 09:51:50;;;;;;;24.33;4.38;;;;;;;5.37;57.38;96558.16;5045795;28;20045;-70
2021/03/22 09:54:32;;;;;;;18.65;4.55;;;;;;;5.16;60.12;96556.66;5049825;28;20045;-70
2021/03/22 09:57:31;;;;;;;19.90;4.55;;;;;;;5.20;58.85;96561.22;5051018;28;20052;-69
2021/03/22 10:00:26;;;;;;;17.08;4.47;;;;;;;5.19;59.51;96559.63;5050748;28;20066;-70
2021/03/22 10:02:55;;;;;;;22.13;4.68;;;;;;;5.26;59.43;96555.81;5034660;28;20074;-70
2021/03/22 10:05:25;;;;;;;20.90;4.28;;;;;;;5.43;56.57;96551.66;5050613;28;20041;-71
2021/03/22 10:08:12;;;;;;;20.85;4.07;;;;;;;5.57;56.66;96556.41;5050792;28;20074;-70
2021/03/22 10:10:41;;;;;;;20.20;3.83;;;;;;;5.58;55.28;96558.03;5050874;28;20041;-70
2021/03/22 10:13:17;;;;;;;16.63;3.97;;;;;;;5.61;55.58;96554.78;5049438;28;20059;-71
2021/03/22 10:15:50;;;;;;;19.40;3.78;;;;;;;5.63;53.78;96544.50;5049868;28;20052;-70
2021/03/22 10:18:23;;;;;;;10.25;3.03;;;;;;;5.54;55.53;96554.31;5050681;28;20099;-70
2021/03/22 10:21:00;;;;;;;17.60;4.38;;;;;;;5.74;55.36;96554.13;5049524;28;20049;-69
2021/03/22 10:23:30;;;;;;;21.95;4.13;;;;;;;5.78;54.61;96547.06;5050280;28;20041;-69
2021/03/22 10:26:05;;;;;;;17.77;4.00;;;;;;;5.84;55.03;96556.75;5044847;28;20052;-69
2021/03/22 10:28:32;;;;;;;17.27;4.55;;;;;;;5.91;56.15;96554.59;5046767;28;20044;-69
2021/03/22 10:31:03;;;;;;;19.98;4.47;;;;;;;5.92;55.45;96558.91;5047296;28;20048;-71
2021/03/22 10:33:31;;;;;;;18.73;4.20;;;;;;;5.94;56.30;96558.59;5046987;28;20081;-72
2021/03/22 10:36:00;;;;;;;18.55;4.22;;;;;;;5.91;54.59;96554.59;5047436;28;20836;-70
2021/03/22 10:38:29;;;;;;;15.05;3.67;;;;;;;5.91;55.64;96568.09;5046474;28;20117;-72
2021/03/22 10:40:57;;;;;;;15.15;4.05;;;;;;;5.91;56.26;96559.16;5047889;28;20045;-70
2021/03/22 10:43:33;;;;;;;12.57;3.40;;;;;;;5.79;56.44;96564.09;5045982;28;20049;-69
2021/03/22 10:46:15;;;;;;;22.20;4.28;;;;;;;5.73;56.98;96560.63;5047657;28;20554;-72
2021/03/22 10:48:42;;;;;;;23.90;4.53;;;;;;;5.68;56.11;96563.38;5047295;28;20063;-72
2021/03/22 10:51:17;;;;;;;19.05;4.38;;;;;;;5.76;57.55;96568.19;5046947;28;20049;-69
2021/03/22 10:54:00;;;;;;;25.55;4.18;;;;;;;6.01;56.82;96557.19;5047272;28;20120;-72
2021/03/22 10:56:35;;;;;;;20.87;4.40;;;;;;;6.24;55.85;96555.63;5046174;28;20049;-71
2021/03/22 10:59:06;;;;;;;17.42;4.38;;;;;;;6.37;57.20;96556.88;5047624;28;20156;-70
2021/03/22 11:01:36;;;;;;;19.05;4.03;;;;;;;6.84;54.87;96557.16;5046875;28;20074;-70
2021/03/22 11:04:04;;;;;;;19.75;4.50;;;;;;;7.11;55.05;96560.09;5046438;28;20049;-70
2021/03/22 11:06:36;;;;;;;20.15;4.50;;;;;;;6.99;54.96;96568.59;5047014;28;20462;-72
2021/03/22 11:09:07;;;;;;;20.30;4.57;;;;;;;6.97;53.83;96568.09;5046871;28;20052;-69
2021/03/22 11:11:34;;;;;;;17.40;3.90;;;;;;;6.85;52.99;96575.03;5047717;28;20068;-72
2021/03/22 11:14:05;;;;;;;16.95;3.50;;;;;;;6.89;53.67;96568.75;5046510;28;20060;-71
2021/03/22 11:16:34;;;;;;;20.40;3.83;;;;;;;7.15;53.89;96568.41;5047614;28;20048;-71
2021/03/22 11:19:25;;;;;;;18.73;4.03;;;;;;;7.29;54.88;96562.00;5046438;28;20053;-71
2021/03/22 11:21:53;;;;;;;20.60;4.15;;;;;;;7.54;53.30;96566.25;5046930;28;20048;-72
2021/03/22 11:24:33;;;;;;;18.65;4.20;;;;;;;7.43;54.12;96559.38;5047512;28;20063;-71
2021/03/22 11:27:01;;;;;;;23.35;4.95;;;;;;;7.47;50.93;96565.03;5050849;28;20056;-72
2021/03/22 11:29:28;;;;;;;20.60;4.03;;;;;;;7.74;53.22;96564.34;5042713;28;20392;-71
2021/03/22 11:31:58;;;;;;;20.35;4.78;;;;;;;7.91;52.62;96564.63;5050382;28;20052;-72
2021/03/22 11:34:29;;;;;;;18.80;4.50;;;;;;;8.13;51.25;96555.84;5050776;28;20051;-72
2021/03/22 11:37:03;;;;;;;15.55;3.95;;;;;;;8.17;50.59;96550.66;5050250;28;20045;-72
2021/03/22 11:39:33;;;;;;;17.42;4.10;;;;;;;7.76;52.20;96551.31;5050794;28;20052;-72
2021/03/22 11:42:17;;;;;;;16.95;4.20;;;;;;;7.98;54.80;96540.63;5050275;28;20136;-71
2021/03/22 11:44:44;;;;;;;21.17;4.40;;;;;;;8.18;55.26;96547.63;5050282;28;20041;-72
2021/03/22 11:47:26;;;;;;;20.38;4.47;;;;;;;8.57;51.46;96541.81;5050327;28;20057;-72
2021/03/22 11:49:53;;;;;;;15.50;3.78;;;;;;;8.71;49.79;96533.66;5049760;28;20053;-71
2021/03/22 11:52:21;;;;;;;14.93;3.83;;;;;;;8.34;49.55;96546.25;5050178;28;20060;-72
2021/03/22 11:54:50;;;;;;;18.83;3.92;;;;;;;8.14;49.92;96556.66;5049941;28;20052;-71
2021/03/22 11:57:19;;;;;;;17.02;4.22;;;;;;;8.09;51.79;96546.69;5050206;28;20049;-72